createdAt,value
2022-11-24T00:01:20.311Z,96.20
2022-11-24T00:03:57.627Z,96.42
2022-11-24T00:06:26.514Z,95.83
2022-11-24T00:08:54.822Z,96.93
2022-11-24T00:11:28.235Z,96.83
2022-11-24T00:13:57.377Z,96.86
2022-11-24T00:16:28.133Z,96.72
2022-11-24T00:18:58.016Z,96.66
2022-11-24T00:21:27.610Z,97.30
2022-11-24T00:23:55.813Z,98.31
2022-11-24T00:26:26.588Z,97.71
2022-11-24T00:28:57.026Z,98.42
2022-11-24T00:31:27.654Z,99.35
2022-11-24T00:33:58.015Z,99.02
2022-11-24T00:36:28.207Z,99.14
2022-11-24T00:38:58.542Z,98.86
2022-11-24T00:41:27.792Z,98.02
2022-11-24T00:43:56.087Z,98.74
2022-11-24T00:46:24.474Z,97.93
2022-11-24T00:48:53.922Z,98.46
2022-11-24T00:51:24.037Z,98.47
2022-11-24T00:53:53.421Z,98.10
2022-11-24T00:56:21.210Z,98.08
2022-11-24T00:58:49.066Z,97.78
2022-11-24T01:01:20.464Z,98.58
2022-11-24T01:03:49.116Z,98.50
2022-11-24T01:06:20.141Z,98.31
2022-11-24T01:08:48.599Z,97.82
2022-11-24T01:11:20.779Z,97.69
2022-11-24T01:13:52.301Z,98.06
2022-11-24T01:16:23.929Z,97.86
2022-11-24T01:18:52.211Z,97.54
2022-11-24T01:21:20.447Z,97.63
2022-11-24T01:23:48.934Z,97.85
2022-11-24T01:26:19.334Z,98.21
2022-11-24T01:28:48.070Z,97.65
2022-11-24T01:31:17.017Z,97.25
2022-11-24T01:33:44.872Z,98.54
2022-11-24T01:36:13.597Z,98.40
2022-11-24T01:38:41.761Z,98.27
2022-11-24T01:41:15.227Z,97.90
2022-11-24T01:43:44.389Z,97.79
2022-11-24T01:46:15.064Z,97.41
2022-11-24T01:48:49.104Z,96.84
2022-11-24T01:51:22.244Z,96.54
2022-11-24T01:53:56.845Z,96.85
2022-11-24T01:56:26.825Z,96.12
2022-11-24T01:58:59.301Z,96.29
2022-11-24T02:01:29.468Z,96.44
2022-11-24T02:03:58.447Z,96.45
2022-11-24T02:06:30.136Z,97.26
2022-11-24T02:09:03.714Z,97.28
2022-11-24T02:11:37.553Z,97.45
2022-11-24T02:14:07.499Z,97.98
2022-11-24T02:16:36.883Z,99.18
2022-11-24T02:19:14.483Z,98.50
2022-11-24T02:21:42.300Z,98.16
2022-11-24T02:24:19.177Z,97.13
2022-11-24T02:26:48.630Z,97.60
2022-11-24T02:29:16.798Z,96.66
2022-11-24T02:31:54.707Z,95.54
2022-11-24T02:34:22.626Z,95.49
2022-11-24T02:36:50.504Z,96.70
2022-11-24T02:39:18.717Z,97.11
2022-11-24T02:42:00.825Z,97.02
2022-11-24T02:44:33.359Z,96.58
2022-11-24T02:47:12.861Z,96.76
2022-11-24T02:49:41.307Z,97.02
2022-11-24T02:52:09.399Z,96.95
2022-11-24T02:54:37.579Z,97.02
2022-11-24T02:57:05.990Z,97.38
2022-11-24T02:59:33.958Z,97.42
2022-11-24T03:02:01.971Z,97.03
2022-11-24T03:04:29.901Z,96.87
2022-11-24T03:06:58.441Z,96.67
2022-11-24T03:09:26.319Z,95.63
2022-11-24T03:11:55.397Z,95.70
2022-11-24T03:14:23.299Z,96.07
2022-11-24T03:16:51.297Z,96.39
2022-11-24T03:19:19.248Z,95.81
2022-11-24T03:21:47.122Z,95.28
2022-11-24T03:24:14.985Z,95.61
2022-11-24T03:26:42.852Z,95.73
2022-11-24T03:29:10.787Z,96.13
2022-11-24T03:31:38.692Z,96.55
2022-11-24T03:34:06.614Z,96.57
2022-11-24T03:36:34.586Z,96.64
2022-11-24T03:39:02.545Z,96.57
2022-11-24T03:41:30.475Z,97.15
2022-11-24T03:43:58.438Z,97.59
2022-11-24T03:46:26.428Z,97.64
2022-11-24T03:48:54.372Z,97.87
2022-11-24T03:51:22.407Z,98.18
2022-11-24T03:53:50.269Z,97.87
2022-11-24T03:56:18.224Z,98.04
2022-11-24T03:58:46.167Z,97.96
2022-11-24T04:01:14.307Z,97.37
2022-11-24T04:03:42.284Z,97.58
2022-11-24T04:06:10.291Z,97.70
2022-11-24T04:08:38.163Z,97.13
2022-11-24T04:11:07.335Z,97.01
2022-11-24T04:13:35.070Z,97.61
2022-11-24T04:16:06.619Z,97.77
2022-11-24T04:18:34.599Z,98.04
2022-11-24T04:21:02.317Z,99.12
2022-11-24T04:23:30.149Z,98.35
2022-11-24T04:25:58.082Z,98.86
2022-11-24T04:28:25.911Z,98.54
2022-11-24T04:30:53.755Z,98.32
2022-11-24T04:33:21.598Z,98.59
2022-11-24T04:35:53.662Z,98.51
2022-11-24T04:39:23.025Z,98.74
2022-11-24T04:41:09.467Z,98.30
2022-11-24T04:43:40.607Z,98.31
2022-11-24T04:46:11.877Z,98.44
2022-11-24T04:48:39.739Z,97.74
2022-11-24T04:51:07.874Z,98.13
2022-11-24T04:53:35.717Z,98.61
2022-11-24T04:56:07.317Z,98.40
2022-11-24T04:58:35.873Z,98.35
2022-11-24T05:01:07.516Z,98.98
2022-11-24T05:03:37.113Z,98.42
2022-11-24T05:06:05.346Z,97.81
2022-11-24T05:08:33.164Z,97.71
2022-11-24T05:11:05.846Z,97.94
2022-11-24T05:13:33.977Z,97.68
2022-11-24T05:16:02.015Z,97.98
2022-11-24T05:18:29.858Z,98.04
2022-11-24T05:20:58.969Z,97.79
2022-11-24T05:23:27.353Z,98.47
2022-11-24T05:25:59.864Z,98.48
2022-11-24T05:28:27.734Z,97.69
2022-11-24T05:30:59.399Z,97.77
2022-11-24T05:33:28.730Z,97.52
2022-11-24T05:36:01.464Z,97.06
2022-11-24T05:38:30.350Z,97.46
2022-11-24T05:41:02.771Z,98.03
2022-11-24T05:43:30.660Z,97.08
2022-11-24T05:46:02.233Z,100.00
2022-11-24T05:48:30.314Z,94.26
2022-11-24T05:50:58.852Z,94.41
2022-11-24T05:53:27.212Z,95.74
2022-11-24T05:55:55.563Z,95.65
2022-11-24T05:58:24.261Z,92.82
2022-11-24T06:00:52.152Z,94.03
2022-11-24T06:03:20.188Z,94.71
2022-11-24T06:05:48.398Z,95.72
2022-11-24T06:08:16.376Z,95.26
2022-11-24T06:10:44.300Z,95.53
2022-11-24T06:13:12.342Z,94.95
2022-11-24T06:15:41.093Z,94.87
2022-11-24T06:18:09.043Z,95.07
2022-11-24T06:20:37.286Z,94.88
2022-11-24T06:23:05.314Z,94.70
2022-11-24T06:25:35.795Z,94.71
2022-11-24T06:28:05.347Z,94.58
2022-11-24T06:30:33.264Z,94.59
2022-11-24T06:33:01.485Z,95.07
2022-11-24T06:35:29.506Z,95.06
2022-11-24T06:37:57.380Z,95.43
2022-11-24T06:40:25.200Z,96.58
2022-11-24T06:42:53.119Z,93.35
2022-11-24T06:45:21.022Z,92.81
2022-11-24T06:47:48.838Z,92.26
2022-11-24T06:50:16.780Z,92.24
2022-11-24T06:52:44.721Z,93.40
2022-11-24T06:55:12.810Z,93.24
2022-11-24T06:57:40.716Z,93.75
2022-11-24T07:00:09.087Z,93.64
2022-11-24T07:02:41.079Z,94.23
2022-11-24T07:05:12.155Z,93.85
2022-11-24T07:07:40.272Z,93.91
2022-11-24T07:10:08.641Z,93.38
2022-11-24T07:12:36.572Z,93.20
2022-11-24T07:15:04.772Z,93.25
2022-11-24T07:17:36.640Z,93.46
2022-11-24T07:20:05.907Z,92.83
2022-11-24T07:22:34.336Z,92.40
2022-11-24T07:25:02.971Z,92.84
2022-11-24T07:27:30.718Z,91.91
2022-11-24T07:29:58.571Z,91.45
2022-11-24T07:32:26.279Z,90.87
2022-11-24T07:34:54.130Z,90.53
2022-11-24T07:37:24.523Z,90.12
2022-11-24T07:39:55.803Z,90.32
2022-11-24T07:42:23.558Z,88.36
2022-11-24T07:44:51.350Z,88.10
2022-11-24T07:47:19.149Z,87.30
2022-11-24T07:49:47.018Z,86.74
2022-11-24T07:52:14.768Z,87.77
2022-11-24T07:54:42.612Z,87.56
2022-11-24T07:57:10.499Z,86.35
2022-11-24T07:59:38.378Z,86.68
2022-11-24T08:02:06.602Z,86.45
2022-11-24T08:04:37.038Z,85.09
2022-11-24T08:07:05.045Z,85.67
2022-11-24T08:09:32.849Z,85.48
2022-11-24T08:12:00.776Z,85.65
2022-11-24T08:14:28.657Z,85.19
2022-11-24T08:16:57.967Z,84.50
2022-11-24T08:19:26.025Z,84.02
2022-11-24T08:21:53.894Z,84.27
2022-11-24T08:24:21.759Z,84.72
2022-11-24T08:26:49.702Z,84.01
2022-11-24T08:29:17.612Z,82.89
2022-11-24T08:31:45.587Z,81.78
2022-11-24T08:34:13.546Z,82.99
2022-11-24T08:36:41.339Z,82.67
2022-11-24T08:39:12.148Z,82.17
2022-11-24T08:41:39.963Z,80.99
2022-11-24T08:44:10.237Z,80.69
2022-11-24T08:46:38.135Z,79.68
2022-11-24T08:49:06.685Z,79.38
2022-11-24T08:51:34.603Z,79.41
2022-11-24T08:54:02.994Z,78.18
2022-11-24T08:56:32.757Z,78.92
2022-11-24T08:59:00.999Z,78.57
2022-11-24T09:01:29.542Z,78.71
2022-11-24T09:03:57.683Z,78.34
2022-11-24T09:06:31.103Z,77.20
2022-11-24T09:09:00.041Z,78.58
2022-11-24T09:11:28.562Z,77.26
2022-11-24T09:13:57.039Z,77.33
2022-11-24T09:16:28.053Z,77.06
2022-11-24T09:19:01.942Z,76.13
2022-11-24T09:21:31.293Z,75.37
2022-11-24T09:23:59.144Z,75.11
2022-11-24T09:26:29.587Z,74.72
2022-11-24T09:28:58.860Z,74.27
2022-11-24T09:31:29.455Z,73.22
2022-11-24T09:33:57.970Z,72.26
2022-11-24T09:36:25.875Z,72.00
2022-11-24T09:38:53.860Z,71.50
2022-11-24T09:41:33.707Z,70.70
2022-11-24T09:44:22.717Z,69.74
2022-11-24T09:47:12.151Z,69.28
2022-11-24T09:49:51.411Z,68.84
2022-11-24T09:52:43.180Z,68.35
2022-11-24T09:55:24.388Z,68.25
2022-11-24T09:58:03.405Z,67.94
2022-11-24T10:00:31.915Z,67.18
2022-11-24T10:02:59.914Z,68.86
2022-11-24T10:05:33.049Z,68.03
2022-11-24T10:08:16.542Z,67.19
2022-11-24T10:10:57.866Z,67.38
2022-11-24T10:13:33.760Z,66.94
2022-11-24T10:16:22.225Z,66.16
2022-11-24T10:19:46.250Z,64.67
2022-11-24T10:22:28.460Z,64.29
2022-11-24T10:25:08.458Z,64.35
2022-11-24T10:27:42.123Z,63.98
2022-11-24T10:30:29.351Z,63.57
2022-11-24T10:33:25.558Z,64.55
2022-11-24T10:36:12.087Z,63.46
2022-11-24T10:38:53.041Z,63.83
2022-11-24T10:41:36.591Z,64.35
2022-11-24T10:44:04.765Z,64.63
2022-11-24T10:46:37.848Z,64.72
2022-11-24T10:49:07.344Z,64.54
2022-11-24T10:51:40.587Z,64.15
2022-11-24T10:54:17.942Z,63.80
2022-11-24T10:56:47.686Z,64.07
2022-11-24T10:59:24.507Z,63.15
2022-11-24T11:01:53.492Z,63.85
2022-11-24T11:04:26.291Z,63.52
2022-11-24T11:07:09.069Z,63.76
2022-11-24T11:09:37.298Z,64.10
2022-11-24T11:12:49.925Z,62.87
2022-11-24T11:15:26.723Z,61.91
2022-11-24T11:17:59.149Z,61.62
2022-11-24T11:20:35.255Z,61.65
2022-11-24T11:23:16.865Z,61.91
2022-11-24T11:25:45.342Z,60.32
2022-11-24T11:28:19.142Z,62.62
2022-11-24T11:31:18.027Z,62.11
2022-11-24T11:34:04.121Z,60.83
2022-11-24T11:36:33.639Z,61.30
2022-11-24T11:39:03.385Z,62.88
2022-11-24T11:41:36.183Z,61.91
2022-11-24T11:44:34.717Z,61.41
2022-11-24T11:47:13.476Z,59.83
2022-11-24T11:49:41.425Z,59.53
2022-11-24T11:52:37.016Z,61.25
2022-11-24T11:55:49.650Z,60.64
2022-11-24T11:58:53.084Z,60.27
2022-11-24T12:02:09.332Z,60.74
2022-11-24T12:04:50.316Z,59.40
2022-11-24T12:07:46.348Z,60.66
2022-11-24T12:10:32.502Z,61.01
2022-11-24T12:13:25.634Z,61.75
2022-11-24T12:16:04.287Z,61.02
2022-11-24T12:18:57.179Z,61.25
2022-11-24T12:21:53.357Z,60.65
2022-11-24T12:25:22.557Z,61.20
2022-11-24T12:28:48.064Z,62.25
2022-11-24T12:31:29.852Z,63.85
2022-11-24T12:34:03.026Z,62.77
2022-11-24T12:36:33.928Z,62.51
2022-11-24T12:39:26.701Z,63.17
2022-11-24T12:42:13.229Z,61.84
2022-11-24T12:45:08.762Z,62.77
2022-11-24T12:47:45.354Z,62.66
2022-11-24T12:50:18.955Z,62.68
2022-11-24T12:52:58.587Z,62.32
2022-11-24T12:55:29.178Z,63.71
2022-11-24T12:58:25.819Z,63.14
2022-11-24T13:01:18.871Z,63.20
2022-11-24T13:04:00.873Z,62.50
2022-11-24T13:07:03.367Z,64.35
2022-11-24T13:09:31.213Z,63.32
2022-11-24T13:12:16.901Z,62.86
2022-11-24T13:14:46.301Z,63.61
2022-11-24T13:17:58.161Z,63.24
2022-11-24T13:20:33.539Z,62.10
2022-11-24T13:23:03.691Z,63.21
2022-11-24T13:25:37.023Z,63.36
2022-11-24T13:28:17.504Z,65.19
2022-11-24T13:30:55.625Z,64.08
2022-11-24T13:33:30.751Z,66.20
2022-11-24T13:36:04.696Z,65.31
2022-11-24T13:38:52.815Z,64.61
2022-11-24T13:41:35.861Z,64.97
2022-11-24T13:44:16.625Z,65.34
2022-11-24T13:47:46.986Z,66.24
2022-11-24T13:50:42.444Z,65.75
2022-11-24T13:53:17.795Z,65.66
2022-11-24T13:55:57.724Z,65.50
2022-11-24T13:58:39.906Z,65.36
2022-11-24T14:01:07.728Z,66.14
2022-11-24T14:03:47.569Z,68.14
2022-11-24T14:06:38.250Z,68.24
2022-11-24T14:09:45.935Z,67.83
2022-11-24T14:12:22.297Z,68.67
2022-11-24T14:14:52.568Z,68.65
2022-11-24T14:17:28.694Z,70.09
2022-11-24T14:19:59.097Z,70.72
2022-11-24T14:22:36.792Z,72.23
2022-11-24T14:25:06.528Z,71.35
2022-11-24T14:27:38.734Z,72.03
2022-11-24T14:30:15.598Z,72.20
2022-11-24T14:32:57.275Z,72.21
2022-11-24T14:35:32.777Z,72.42
2022-11-24T14:38:03.125Z,72.69
2022-11-24T14:40:48.502Z,73.34
2022-11-24T14:43:29.917Z,74.06
2022-11-24T14:46:12.443Z,73.62
2022-11-24T14:48:50.061Z,74.01
2022-11-24T14:51:28.165Z,74.44
2022-11-24T14:53:59.916Z,75.44
2022-11-24T14:56:34.976Z,75.63
2022-11-24T14:59:03.755Z,75.08
2022-11-24T15:01:41.874Z,76.08
2022-11-24T15:07:29.569Z,76.95
2022-11-24T15:10:03.388Z,77.37
2022-11-24T15:12:42.739Z,78.55
2022-11-24T15:15:13.644Z,78.90
2022-11-24T15:18:11.733Z,79.17
2022-11-24T15:20:45.006Z,79.20
2022-11-24T15:23:26.293Z,80.31
2022-11-24T15:25:56.167Z,80.02
2022-11-24T15:28:27.681Z,81.29
2022-11-24T15:31:12.469Z,82.17
2022-11-24T15:33:42.386Z,80.49
2022-11-24T15:36:16.235Z,81.80
2022-11-24T15:38:44.073Z,82.69
2022-11-24T15:41:24.454Z,80.70
2022-11-24T15:43:58.959Z,82.30
2022-11-24T15:46:30.025Z,82.35
2022-11-24T15:48:58.211Z,83.53
2022-11-24T15:51:26.945Z,83.00
2022-11-24T15:54:00.663Z,84.26
2022-11-24T15:56:31.017Z,85.68
2022-11-24T15:58:58.989Z,84.98
2022-11-24T16:01:31.295Z,84.99
2022-11-24T16:04:00.662Z,86.71
2022-11-24T16:06:28.579Z,87.12
2022-11-24T16:08:57.784Z,88.79
2022-11-24T16:11:48.633Z,89.87
2022-11-24T16:14:16.887Z,89.87
2022-11-24T16:16:45.291Z,90.74
2022-11-24T16:19:18.068Z,91.65
2022-11-24T16:21:50.107Z,92.11
2022-11-24T16:24:17.943Z,92.75
2022-11-24T16:26:48.174Z,93.32
2022-11-24T16:29:16.981Z,92.82
2022-11-24T16:31:47.507Z,92.25
2022-11-24T16:34:18.036Z,92.03
2022-11-24T16:37:08.543Z,92.18
2022-11-24T16:39:36.922Z,91.75
2022-11-24T16:42:05.237Z,92.44
2022-11-24T16:44:36.695Z,92.99
2022-11-24T16:47:06.233Z,93.24
2022-11-24T16:49:34.660Z,93.08
2022-11-24T16:52:02.460Z,92.89
2022-11-24T16:54:31.504Z,94.30
2022-11-24T16:57:02.499Z,94.11
2022-11-24T16:59:30.576Z,94.46
2022-11-24T17:01:58.565Z,93.91
2022-11-24T17:04:26.441Z,93.90
2022-11-24T17:06:58.793Z,95.15
2022-11-24T17:09:26.730Z,94.61
2022-11-24T17:11:54.928Z,95.21
2022-11-24T17:14:22.960Z,97.87
2022-11-24T17:16:50.940Z,94.84
2022-11-24T17:19:19.619Z,95.10
2022-11-24T17:21:51.376Z,95.74
2022-11-24T17:24:19.358Z,96.48
2022-11-24T17:26:50.422Z,96.19
2022-11-24T17:29:22.369Z,97.07
2022-11-24T17:31:50.304Z,96.95
2022-11-24T17:34:21.919Z,97.00
2022-11-24T17:36:49.894Z,97.27
2022-11-24T17:39:23.246Z,98.00
2022-11-24T17:41:52.664Z,97.91
2022-11-24T17:44:20.475Z,98.00
2022-11-24T17:46:48.340Z,97.95
2022-11-24T17:49:16.186Z,97.97
2022-11-24T17:51:46.399Z,98.15
2022-11-24T17:57:02.625Z,98.34
2022-11-24T17:59:30.606Z,98.32
2022-11-24T18:01:58.576Z,99.17
2022-11-24T18:04:26.491Z,99.26
2022-11-24T18:06:54.307Z,99.16
2022-11-24T18:09:22.179Z,98.69
2022-11-24T18:11:52.724Z,98.46
2022-11-24T18:14:21.152Z,98.47
2022-11-24T18:16:49.121Z,98.41
2022-11-24T18:19:16.942Z,98.08
2022-11-24T18:21:46.362Z,98.80
2022-11-24T18:24:17.483Z,98.60
2022-11-24T18:26:50.413Z,99.10
2022-11-24T18:29:18.280Z,98.99
2022-11-24T18:31:46.171Z,99.05
2022-11-24T18:34:16.558Z,99.38
2022-11-24T18:36:45.424Z,99.76
2022-11-24T18:39:18.178Z,99.40
2022-11-24T18:41:46.748Z,98.56
2022-11-24T18:44:14.591Z,98.73
2022-11-24T18:46:49.727Z,98.74
2022-11-24T18:49:17.541Z,99.04
2022-11-24T18:51:46.727Z,98.46
2022-11-24T18:54:14.511Z,98.97
2022-11-24T18:56:43.456Z,98.86
2022-11-24T18:59:11.367Z,98.95
2022-11-24T19:01:39.207Z,99.95
2022-11-24T19:04:07.067Z,99.98
2022-11-24T19:06:37.529Z,99.58
2022-11-24T19:09:08.479Z,99.99
2022-11-24T19:11:38.683Z,100.00
2022-11-24T19:14:08.263Z,100.00
2022-11-24T19:16:36.808Z,100.00
2022-11-24T19:19:08.174Z,100.00
2022-11-24T19:21:40.261Z,100.00
2022-11-24T19:24:13.407Z,100.00
2022-11-24T19:26:41.215Z,100.00
2022-11-24T19:29:09.146Z,100.00
2022-11-24T19:31:41.012Z,100.00
2022-11-24T19:34:08.954Z,100.00
2022-11-24T19:36:36.959Z,100.00
2022-11-24T19:39:05.450Z,100.00
2022-11-24T19:41:34.467Z,100.00
2022-11-24T19:44:02.574Z,99.35
2022-11-24T19:46:30.639Z,99.52
2022-11-24T19:49:03.127Z,100.00
2022-11-24T19:51:33.895Z,100.00
2022-11-24T19:54:03.196Z,99.76
2022-11-24T19:56:34.911Z,100.00
2022-11-24T19:59:05.226Z,100.00
2022-11-24T20:01:39.750Z,100.00
2022-11-24T20:04:13.818Z,100.00
2022-11-24T20:06:44.256Z,100.00
2022-11-24T20:09:18.715Z,100.00
2022-11-24T20:11:48.786Z,100.00
2022-11-24T20:14:22.174Z,99.95
2022-11-24T20:16:50.261Z,100.00
2022-11-24T20:19:19.038Z,100.00
2022-11-24T20:21:49.471Z,100.00
2022-11-24T20:24:23.936Z,100.00
2022-11-24T20:26:54.921Z,100.00
2022-11-24T20:29:23.223Z,100.00
2022-11-24T20:31:53.910Z,100.00
2022-11-24T20:34:22.913Z,100.00
2022-11-24T20:36:52.948Z,99.17
2022-11-24T20:39:25.567Z,99.28
2022-11-24T20:41:55.287Z,99.59
2022-11-24T20:44:28.287Z,100.00
2022-11-24T20:46:59.783Z,100.00
2022-11-24T20:49:28.635Z,99.86
2022-11-24T20:51:57.728Z,99.55
2022-11-24T20:54:28.715Z,99.51
2022-11-24T20:56:56.625Z,98.70
2022-11-24T20:59:25.722Z,99.02
2022-11-24T21:01:55.591Z,99.02
2022-11-24T21:04:25.753Z,99.46
2022-11-24T21:06:57.182Z,98.40
2022-11-24T21:09:27.293Z,98.50
2022-11-24T21:11:55.509Z,97.84
2022-11-24T21:14:27.427Z,99.77
2022-11-24T21:16:57.325Z,99.90
2022-11-24T21:19:25.448Z,99.39
2022-11-24T21:21:53.607Z,99.37
2022-11-24T21:24:22.023Z,99.56
2022-11-24T21:26:52.135Z,99.14
2022-11-24T21:29:23.841Z,98.61
2022-11-24T21:31:52.682Z,97.73
2022-11-24T21:34:20.901Z,97.05
2022-11-24T21:36:52.103Z,96.87
2022-11-24T21:39:20.750Z,97.33
2022-11-24T21:41:49.074Z,97.21
2022-11-24T21:44:17.334Z,97.35
2022-11-24T21:46:51.114Z,97.21
2022-11-24T21:49:22.492Z,97.59
2022-11-24T21:51:56.011Z,97.61
2022-11-24T21:54:24.806Z,96.52
2022-11-24T21:56:53.882Z,96.59
2022-11-24T21:59:22.628Z,97.36
2022-11-24T22:01:50.852Z,98.13
2022-11-24T22:04:18.989Z,97.71
2022-11-24T22:06:47.144Z,98.42
2022-11-24T22:09:18.263Z,97.47
2022-11-24T22:11:49.621Z,97.36
2022-11-24T22:14:17.998Z,96.67
2022-11-24T22:16:46.732Z,96.86
2022-11-24T22:19:14.950Z,97.15
2022-11-24T22:21:44.355Z,97.14
2022-11-24T22:24:12.620Z,96.88
2022-11-24T22:26:40.899Z,96.53
2022-11-24T22:29:09.198Z,95.98
2022-11-24T22:31:37.350Z,96.62
2022-11-24T22:34:05.549Z,96.74
2022-11-24T22:36:33.801Z,97.17
2022-11-24T22:39:04.010Z,96.69
2022-11-24T22:41:34.074Z,96.33
2022-11-24T22:44:02.587Z,96.90
2022-11-24T22:46:32.588Z,97.45
2022-11-24T22:49:01.901Z,97.75
2022-11-24T22:51:32.662Z,98.16
2022-11-24T22:54:04.281Z,97.18
2022-11-24T22:56:33.743Z,97.55
2022-11-24T22:59:02.713Z,97.78
2022-11-24T23:01:37.188Z,97.86
2022-11-24T23:04:05.923Z,98.27
2022-11-24T23:06:34.113Z,97.36
2022-11-24T23:09:03.960Z,98.41
2022-11-24T23:11:37.988Z,98.28
2022-11-24T23:14:09.062Z,98.47
2022-11-24T23:16:37.323Z,98.32
2022-11-24T23:19:08.929Z,98.33
2022-11-24T23:21:38.752Z,98.77
2022-11-24T23:24:09.341Z,97.73
2022-11-24T23:26:41.966Z,97.88
2022-11-24T23:29:13.968Z,98.33
2022-11-24T23:31:43.733Z,98.21
2022-11-24T23:34:13.091Z,99.04
2022-11-24T23:36:41.312Z,99.62
2022-11-24T23:39:13.111Z,99.05
2022-11-24T23:41:41.854Z,99.38
2022-11-24T23:44:12.533Z,99.24
2022-11-24T23:46:41.261Z,99.09
2022-11-24T23:49:10.848Z,99.66
2022-11-24T23:51:42.544Z,99.72
2022-11-24T23:54:10.574Z,99.91
2022-11-24T23:56:38.640Z,100.00
2022-11-24T23:59:07.309Z,99.83
